KBPG/BPG METAR and TAF weather

Enter ICAO airport designator
Station Type Date Time Source
KBPG METAR 2020/02/19 11:15 UTC NOAA

KBPG 191115Z AUTO 06008KT 10SM CLR 03/M02 A3029 RMK AO2 T00271022


Station Type Date Time Source
KBPG Decoded METAR 2020/02/19 11:15 UTC NOAA

Big Spring, Big Spring McMahon-Wrinkle Airport, TX, United States (KBPG) 32-12N 101-31W
Feb 19, 2020 - 06:15 AM EST / 2020.02.19 1115 UTC
Wind: from the ENE (060 degrees) at 9 MPH (8 KT):0
Visibility: 10 mile(s):0
Sky conditions: clear
Temperature: 36.9 F (2.7 C)
Dew Point: 28.0 F (-2.2 C)
Relative Humidity: 70%
Pressure (altimeter): 30.29 in. Hg (1025 hPa)
ob: KBPG 191115Z AUTO 06008KT 10SM CLR 03/M02 A3029 RMK AO2 T00271022
cycle: 11

Station Type Date Time Source
KBPG TAF UTC NOAA

Error!

Example: see airport list